Terminal Aerodrome Forecast
Issued by NWS Paducah, KY

Home | Current Version | Previous Version | Text Only | Print | Product List | Glossary On
Versions: 1 2 3 4 5 6 7 8 9 10 11 12 13 14 15 16 17 18
183
FTUS43 KPAH 232320 AAE
TAFEVV
TAF AMD
KEVV 232320Z 2323/2424 32010KT P6SM SCT025 BKN040
     FM240200 32007KT P6SM BKN200
     FM241500 31012KT P6SM SCT040=

USA.gov is the U.S. government's official web portal to all federal, state and local government web resources and services.